Time;durP1;ratioP1;P1;durP2;ratioP2;P2;SDS_P1;SDS_P2;PMS_P1;PMS_P2;Temp;Humidity;BMP_temperature;BMP_pressure;BME280_temperature;BME280_humidity;BME280_pressure;Samples;Min_cycle;Max_cycle;Signal;HPM_P1;HPM_P2
2023/06/14 00:02:50;;;;;;;4.57;2.88;;;;;;;18.39;70.21;101468.41;10377375;28;20046;-69
2023/06/14 00:07:53;;;;;;;3.45;3.15;;;;;;;18.41;66.42;101480.81;10376601;28;20413;-69
2023/06/14 00:12:54;;;;;;;3.42;2.72;;;;;;;18.33;67.89;101475.66;10375588;28;20397;-69
2023/06/14 00:17:54;;;;;;;3.58;2.10;;;;;;;18.27;69.08;101477.44;10376402;28;20129;-69
2023/06/14 00:22:55;;;;;;;4.13;2.50;;;;;;;18.23;67.75;101478.97;10375523;28;20441;-70
2023/06/14 00:27:56;;;;;;;8.85;3.95;;;;;;;18.15;67.26;101484.78;10374765;28;20034;-69
2023/06/14 00:32:57;;;;;;;9.68;4.03;;;;;;;18.08;67.81;101478.56;10374618;28;20506;-69
2023/06/14 00:37:57;;;;;;;8.10;3.35;;;;;;;17.97;66.50;101479.38;10375935;28;20041;-70
2023/06/14 00:42:57;;;;;;;8.10;4.82;;;;;;;17.92;67.74;101481.97;10375755;28;20030;-70
2023/06/14 00:47:58;;;;;;;3.38;3.08;;;;;;;17.88;68.69;101476.94;10375436;28;20125;-69
2023/06/14 00:52:59;;;;;;;7.40;3.25;;;;;;;17.80;69.65;101477.25;10373752;28;20057;-69
2023/06/14 00:58:00;;;;;;;14.85;3.38;;;;;;;17.76;71.14;101478.75;10373720;28;20547;-69
2023/06/14 01:03:01;;;;;;;13.93;3.55;;;;;;;17.70;73.92;101474.19;10374242;28;20069;-69
2023/06/14 01:08:19;;;;;;;7.53;3.88;;;;;;;17.68;75.99;101473.63;10373293;28;20135;-70
2023/06/14 01:13:36;;;;;;;9.07;3.78;;;;;;;17.76;73.76;101483.41;10373245;28;20087;-69
2023/06/14 01:18:36;;;;;;;3.40;3.10;;;;;;;17.68;71.55;101473.63;10374294;28;20045;-70
2023/06/14 01:23:37;;;;;;;24.95;4.18;;;;;;;17.62;69.42;101474.53;10356774;28;20445;-70
2023/06/14 01:28:37;;;;;;;4.95;3.50;;;;;;;17.53;68.27;101475.91;10374216;28;20124;-70
2023/06/14 01:33:37;;;;;;;6.53;3.00;;;;;;;17.46;67.97;101476.00;10372294;28;20437;-69
2023/06/14 01:38:38;;;;;;;3.90;3.05;;;;;;;17.37;64.53;101482.84;10355951;28;20129;-69
2023/06/14 01:43:38;;;;;;;4.40;3.25;;;;;;;17.28;63.38;101486.94;10373227;28;20523;-69
2023/06/14 01:48:39;;;;;;;6.47;3.22;;;;;;;17.16;63.74;101478.66;10355969;28;20061;-69
2023/06/14 01:53:39;;;;;;;6.78;2.40;;;;;;;17.13;63.50;101479.09;10371214;28;20088;-69
2023/06/14 01:58:40;;;;;;;11.32;2.97;;;;;;;17.05;62.92;101482.16;10372895;28;20175;-69
2023/06/14 02:03:40;;;;;;;7.80;2.97;;;;;;;16.88;61.65;101481.88;10388206;28;20109;-69
2023/06/14 02:08:42;;;;;;;5.10;3.25;;;;;;;16.84;63.58;101483.41;10370429;28;20041;-69
2023/06/14 02:13:42;;;;;;;4.75;3.33;;;;;;;16.81;65.22;101476.47;10371087;28;20140;-69
2023/06/14 02:18:43;;;;;;;5.75;2.92;;;;;;;16.81;68.32;101481.09;10372051;28;20113;-69
2023/06/14 02:23:43;;;;;;;4.47;2.72;;;;;;;16.76;69.89;101473.59;10370063;28;20033;-70
2023/06/14 02:28:44;;;;;;;4.38;3.08;;;;;;;16.69;71.45;101483.72;10370836;28;20038;-69
2023/06/14 02:33:44;;;;;;;5.55;2.58;;;;;;;16.67;69.72;101488.56;10370451;28;20466;-70
2023/06/14 02:38:45;;;;;;;5.93;3.65;;;;;;;16.56;70.13;101489.28;10369803;28;20092;-69
2023/06/14 02:43:45;;;;;;;5.15;3.17;;;;;;;16.50;69.37;101491.03;10386059;28;20038;-69
2023/06/14 02:48:45;;;;;;;3.05;2.63;;;;;;;16.39;68.85;101484.38;10370842;28;20034;-69
2023/06/14 02:53:46;;;;;;;4.15;3.58;;;;;;;16.30;69.57;101484.84;10371852;28;20415;-69
2023/06/14 02:58:48;;;;;;;3.38;2.90;;;;;;;16.16;69.02;101489.59;10370521;28;20192;-69
2023/06/14 03:03:48;;;;;;;4.60;3.72;;;;;;;16.05;69.82;101499.34;10370654;28;20311;-70
2023/06/14 03:08:49;;;;;;;7.70;3.67;;;;;;;15.97;68.32;101497.69;10369326;28;20034;-69
2023/06/14 03:13:50;;;;;;;4.70;4.22;;;;;;;15.89;70.56;101506.13;10369422;28;20033;-69
2023/06/14 03:18:51;;;;;;;5.95;3.58;;;;;;;15.88;69.09;101509.91;10369186;28;20034;-69
2023/06/14 03:23:52;;;;;;;7.00;4.00;;;;;;;15.82;71.94;101516.25;10369724;28;20034;-69
2023/06/14 03:28:53;;;;;;;3.72;3.35;;;;;;;15.82;73.48;101527.16;10369458;28;20053;-70
2023/06/14 03:33:53;;;;;;;6.93;3.45;;;;;;;15.79;70.78;101527.59;10368377;28;20065;-70
2023/06/14 03:38:55;;;;;;;7.18;3.70;;;;;;;15.74;72.16;101528.25;10370835;28;20042;-69
2023/06/14 03:43:55;;;;;;;14.35;4.03;;;;;;;15.71;71.36;101528.69;10384828;28;20037;-70
2023/06/14 03:48:57;;;;;;;5.97;3.50;;;;;;;15.68;70.61;101531.84;10371236;28;20331;-69
2023/06/14 03:53:57;;;;;;;5.20;2.92;;;;;;;15.66;71.85;101533.09;10368240;28;20335;-69
2023/06/14 03:58:57;;;;;;;3.92;3.58;;;;;;;15.66;71.09;101535.81;10376365;28;20178;-69
2023/06/14 04:03:58;;;;;;;9.27;3.30;;;;;;;15.67;72.33;101543.84;10361196;28;20073;-69
2023/06/14 04:09:02;;;;;;;12.13;3.40;;;;;;;15.71;72.60;101546.97;10392343;28;20052;-69
2023/06/14 04:14:02;;;;;;;7.82;4.07;;;;;;;15.76;73.48;101549.88;10376864;28;20131;-69
2023/06/14 04:19:03;;;;;;;4.40;3.13;;;;;;;15.84;75.54;101554.28;10376939;28;20053;-69
2023/06/14 04:24:04;;;;;;;11.45;4.45;;;;;;;15.91;74.55;101553.19;10377628;28;20033;-69
2023/06/14 04:29:05;;;;;;;5.32;3.55;;;;;;;15.97;76.82;101555.03;10378517;28;20502;-69
2023/06/14 04:34:05;;;;;;;3.67;3.42;;;;;;;16.08;76.12;101558.13;10375686;28;20493;-70
2023/06/14 04:39:06;;;;;;;11.05;4.05;;;;;;;16.80;75.91;101559.59;10375660;28;20034;-70
2023/06/14 04:44:07;;;;;;;3.95;3.08;;;;;;;17.80;71.28;101553.97;10389519;28;20068;-70
2023/06/14 04:49:08;;;;;;;7.88;4.07;;;;;;;18.32;66.40;101550.78;10375170;28;20060;-71
2023/06/14 04:54:14;;;;;;;4.63;3.25;;;;;;;18.79;63.51;101549.00;10373798;28;20030;-70
2023/06/14 04:59:17;;;;;;;2.05;1.92;;;;;;;19.26;60.74;101560.00;10320305;28;20065;-69
2023/06/14 05:04:17;;;;;;;2.42;2.22;;;;;;;19.65;58.50;101568.56;10372437;28;20417;-69
2023/06/14 05:09:18;;;;;;;8.38;3.20;;;;;;;20.11;56.79;101558.53;10373586;28;20033;-70
2023/06/14 05:14:18;;;;;;;7.10;2.67;;;;;;;20.44;54.83;101571.53;10372886;28;20041;-70
2023/06/14 05:19:20;;;;;;;6.00;3.45;;;;;;;20.70;53.84;101563.78;10373493;28;20038;-70
2023/06/14 05:24:21;;;;;;;3.50;3.20;;;;;;;21.04;52.38;101567.38;10373281;28;20042;-70
2023/06/14 05:29:21;;;;;;;3.72;3.42;;;;;;;21.50;51.20;101570.00;10374019;28;20052;-70
2023/06/14 05:34:21;;;;;;;3.75;3.45;;;;;;;21.78;49.94;101569.00;10372273;28;20508;-70
2023/06/14 05:39:22;;;;;;;3.83;3.03;;;;;;;22.00;48.79;101571.75;10373744;28;20126;-70
2023/06/14 05:44:22;;;;;;;2.55;2.35;;;;;;;22.38;47.63;101579.09;10372864;28;20060;-70
2023/06/14 05:49:23;;;;;;;2.15;2.05;;;;;;;22.59;47.36;101580.16;10371937;28;20090;-70
2023/06/14 05:54:23;;;;;;;4.03;2.63;;;;;;;22.82;45.24;101583.69;10371394;28;20069;-70
2023/06/14 05:59:23;;;;;;;3.83;3.03;;;;;;;22.69;44.64;101584.94;10371884;28;20037;-70
2023/06/14 06:04:24;;;;;;;5.45;2.53;;;;;;;22.87;44.70;101587.28;10372778;28;20042;-71
2023/06/14 06:09:24;;;;;;;2.95;2.72;;;;;;;23.17;44.47;101583.16;10370695;28;20116;-70
2023/06/14 06:14:25;;;;;;;5.05;3.00;;;;;;;23.24;44.43;101586.50;10372218;28;20041;-70
2023/06/14 06:19:25;;;;;;;13.10;2.85;;;;;;;23.90;42.91;101584.16;10371283;28;20034;-70
2023/06/14 06:24:26;;;;;;;2.35;2.22;;;;;;;24.12;41.60;101600.56;10372435;28;20041;-70
2023/06/14 06:29:26;;;;;;;2.85;2.65;;;;;;;24.37;41.59;101594.25;10369516;28;20049;-70
2023/06/14 06:34:27;;;;;;;3.63;3.25;;;;;;;24.42;40.51;101603.72;10371036;28;20149;-70
2023/06/14 06:39:27;;;;;;;3.15;2.53;;;;;;;24.56;40.08;101604.84;10370819;28;20131;-70
2023/06/14 06:44:28;;;;;;;9.18;3.58;;;;;;;24.68;40.26;101605.41;10370378;28;20034;-70
2023/06/14 06:49:28;;;;;;;5.45;3.92;;;;;;;25.16;39.45;101616.28;10371557;28;20100;-70
2023/06/14 06:54:29;;;;;;;3.92;3.45;;;;;;;25.46;39.23;101610.69;10371849;28;20084;-70
2023/06/14 06:59:30;;;;;;;6.10;3.40;;;;;;;25.30;38.54;101622.91;10369552;28;20056;-70
2023/06/14 07:04:31;;;;;;;3.47;3.17;;;;;;;25.05;38.67;101615.41;10370593;28;20060;-70
2023/06/14 07:09:31;;;;;;;8.70;4.03;;;;;;;25.48;38.87;101627.03;10370698;28;20033;-70
2023/06/14 07:14:32;;;;;;;3.85;3.55;;;;;;;25.94;38.35;101640.81;10369184;28;20121;-71
2023/06/14 07:19:33;;;;;;;3.33;3.08;;;;;;;25.97;37.32;101629.13;10369940;28;20057;-70
2023/06/14 07:24:36;;;;;;;4.68;3.80;;;;;;;25.92;37.41;101637.50;10370325;28;20026;-71
2023/06/14 07:29:36;;;;;;;4.57;3.25;;;;;;;26.31;37.28;101639.56;10353829;28;20040;-70
2023/06/14 07:34:36;;;;;;;5.53;3.63;;;;;;;26.78;36.77;101641.78;10359732;28;20057;-70
2023/06/14 07:39:37;;;;;;;8.02;4.28;;;;;;;27.11;36.46;101642.91;10376207;28;20038;-70
2023/06/14 07:44:37;;;;;;;3.38;2.88;;;;;;;27.43;36.42;101657.41;10376508;28;20481;-70
2023/06/14 07:49:38;;;;;;;8.73;3.90;;;;;;;27.53;36.05;101660.91;10375922;28;20065;-71
2023/06/14 07:54:38;;;;;;;3.72;3.45;;;;;;;27.64;35.63;101655.25;10375941;28;20051;-70
2023/06/14 07:59:39;;;;;;;10.65;5.15;;;;;;;27.97;35.16;101650.72;10375366;28;20042;-70
2023/06/14 08:04:40;;;;;;;5.45;3.78;;;;;;;28.00;34.70;101655.72;10375751;28;20045;-70
2023/06/14 08:09:40;;;;;;;4.22;3.88;;;;;;;28.28;34.96;101662.31;10376308;28;20065;-70
2023/06/14 08:14:42;;;;;;;4.00;3.25;;;;;;;28.51;34.10;101652.28;10374956;28;20058;-70
2023/06/14 08:19:42;;;;;;;5.15;3.83;;;;;;;28.97;32.97;101658.00;10359217;28;20454;-71
2023/06/14 08:24:44;;;;;;;6.47;3.80;;;;;;;28.85;32.05;101654.03;10375611;28;20053;-70
2023/06/14 08:29:44;;;;;;;9.23;3.83;;;;;;;29.01;31.93;101655.47;10374849;28;20389;-70
2023/06/14 08:34:45;;;;;;;9.13;3.72;;;;;;;29.29;31.78;101661.97;10376007;28;20053;-70
2023/06/14 08:39:46;;;;;;;3.70;3.47;;;;;;;29.51;31.59;101664.06;10374644;28;20137;-70
2023/06/14 08:44:46;;;;;;;4.43;4.10;;;;;;;29.44;30.79;101661.66;10373387;28;20473;-70
2023/06/14 08:49:47;;;;;;;3.50;3.20;;;;;;;29.35;30.36;101659.88;10373381;28;20109;-70
2023/06/14 08:54:48;;;;;;;3.72;3.35;;;;;;;29.30;30.77;101665.59;10358192;28;20120;-71
2023/06/14 08:59:49;;;;;;;16.00;3.45;;;;;;;29.54;30.44;101654.25;10374245;28;20342;-70
2023/06/14 09:04:49;;;;;;;8.05;3.97;;;;;;;29.77;30.49;101658.88;10374051;28;20029;-70
2023/06/14 09:09:50;;;;;;;17.48;4.15;;;;;;;29.61;30.88;101652.75;10373842;28;20097;-71
2023/06/14 09:14:50;;;;;;;4.97;4.10;;;;;;;30.07;30.45;101654.63;10357698;28;20033;-70
2023/06/14 09:19:50;;;;;;;4.32;3.70;;;;;;;29.62;29.86;101667.53;10372760;28;20124;-70
2023/06/14 09:24:51;;;;;;;8.00;3.25;;;;;;;29.81;30.05;101673.03;10373700;28;20038;-70
2023/06/14 09:29:51;;;;;;;6.70;3.60;;;;;;;29.11;29.83;101673.97;10374155;28;20045;-70
2023/06/14 09:34:52;;;;;;;4.90;3.90;;;;;;;29.43;30.30;101670.38;10373582;28;20037;-70
2023/06/14 09:39:53;;;;;;;3.75;3.08;;;;;;;29.78;28.66;101673.66;10372878;28;20199;-70
2023/06/14 09:44:54;;;;;;;12.90;3.72;;;;;;;29.92;28.54;101685.66;10373721;28;20042;-70
2023/06/14 09:49:55;;;;;;;4.35;3.38;;;;;;;30.19;27.84;101692.41;10371513;28;20034;-70
2023/06/14 09:54:55;;;;;;;16.80;3.25;;;;;;;30.11;28.17;101679.97;10371058;28;20065;-71
2023/06/14 10:00:00;;;;;;;3.40;3.20;;;;;;;30.10;28.01;101675.53;10371115;28;20168;-70
2023/06/14 10:05:05;;;;;;;4.03;3.00;;;;;;;30.07;28.20;101688.13;10371619;28;20064;-70
2023/06/14 10:10:06;;;;;;;3.22;2.92;;;;;;;30.24;28.40;101679.16;10371622;28;20052;-71
2023/06/14 10:15:12;;;;;;;22.52;3.63;;;;;;;30.25;28.13;101669.66;10370634;28;20053;-71
2023/06/14 10:20:16;;;;;;;3.42;3.13;;;;;;;30.62;26.81;101676.09;10371372;28;20113;-70
2023/06/14 10:25:29;;;;;;;11.40;3.40;;;;;;;30.28;26.78;101669.03;10371971;28;20414;-70
2023/06/14 10:30:29;;;;;;;4.38;3.05;;;;;;;30.43;27.43;101664.22;10370268;28;20054;-71
2023/06/14 10:35:31;;;;;;;3.50;3.17;;;;;;;30.78;26.13;101677.41;10373029;28;20108;-70
2023/06/14 10:40:31;;;;;;;2.40;2.25;;;;;;;30.52;26.73;101673.53;10369929;28;20124;-71
2023/06/14 10:45:32;;;;;;;2.45;2.35;;;;;;;30.82;26.68;101677.59;10353958;28;20129;-70
2023/06/14 10:50:34;;;;;;;4.15;2.85;;;;;;;31.12;26.54;101675.22;10371423;28;20454;-71
2023/06/14 10:55:35;;;;;;;2.15;2.05;;;;;;;30.98;24.60;101673.31;10372072;28;20118;-71
2023/06/14 11:00:38;;;;;;;5.43;2.55;;;;;;;31.32;24.64;101682.25;10369340;28;20445;-71
2023/06/14 11:05:47;;;;;;;3.25;2.58;;;;;;;31.57;24.69;101670.44;10368945;28;20042;-71
2023/06/14 11:10:48;;;;;;;2.60;2.42;;;;;;;31.51;24.52;101668.91;10369929;28;20041;-71
2023/06/14 11:15:49;;;;;;;3.95;2.35;;;;;;;31.81;24.71;101655.19;10370432;28;20101;-71
2023/06/14 11:20:49;;;;;;;14.82;2.85;;;;;;;32.23;25.42;101662.16;10371247;28;20129;-71
2023/06/14 11:25:53;;;;;;;5.22;2.47;;;;;;;32.72;24.20;101657.28;10369487;28;20362;-71
2023/06/14 11:31:00;;;;;;;2.33;2.13;;;;;;;31.87;24.06;101646.31;10355300;28;20058;-71
2023/06/14 11:36:07;;;;;;;1.73;1.73;;;;;;;31.64;24.19;101653.97;10370379;28;20133;-71
2023/06/14 11:41:07;;;;;;;8.98;2.10;;;;;;;31.60;24.40;101655.78;10369402;28;20057;-71
2023/06/14 11:46:15;;;;;;;2.05;1.88;;;;;;;31.94;24.38;101640.28;10370741;28;20045;-71
2023/06/14 11:51:15;;;;;;;5.60;2.10;;;;;;;32.16;23.46;101642.16;10369588;28;20034;-71
2023/06/14 11:56:16;;;;;;;2.90;2.22;;;;;;;31.65;24.04;101638.84;10368424;28;20041;-71
2023/06/14 12:01:17;;;;;;;1.70;1.60;;;;;;;32.25;24.18;101636.56;10367414;28;20034;-71
2023/06/14 12:06:27;;;;;;;1.95;1.85;;;;;;;32.20;23.65;101643.19;10353179;28;20038;-71
2023/06/14 12:11:34;;;;;;;1.73;1.63;;;;;;;32.11;23.40;101642.31;10368535;28;20029;-71
2023/06/14 12:16:37;;;;;;;1.85;1.75;;;;;;;32.57;24.23;101643.72;10369802;28;20033;-71
2023/06/14 12:21:40;;;;;;;1.83;1.73;;;;;;;31.89;23.21;101646.06;10376407;28;20070;-71
2023/06/14 12:26:41;;;;;;;1.48;1.40;;;;;;;31.82;24.50;101652.09;10374599;28;20058;-71
2023/06/14 12:31:41;;;;;;;1.60;1.50;;;;;;;31.68;23.60;101645.75;10375056;28;20145;-71
2023/06/14 12:36:44;;;;;;;1.85;1.75;;;;;;;31.87;24.67;101634.31;10374687;28;20038;-71
2023/06/14 12:41:44;;;;;;;2.17;2.05;;;;;;;32.63;22.91;101646.03;10374718;28;20040;-71
2023/06/14 12:46:45;;;;;;;2.35;2.03;;;;;;;32.41;23.72;101646.97;10374713;28;20500;-71
2023/06/14 12:51:46;;;;;;;3.38;2.35;;;;;;;32.01;24.09;101640.66;10374705;28;20070;-71
2023/06/14 12:56:46;;;;;;;1.75;1.65;;;;;;;32.18;24.47;101632.28;10357501;28;20117;-71
2023/06/14 13:01:50;;;;;;;2.78;2.58;;;;;;;32.48;23.84;101643.72;10374484;28;20478;-71
2023/06/14 13:06:51;;;;;;;3.08;1.85;;;;;;;31.52;24.05;101653.75;10374654;28;20510;-71
2023/06/14 13:11:51;;;;;;;1.77;1.48;;;;;;;31.52;24.52;101650.94;10373311;28;20161;-71
2023/06/14 13:16:51;;;;;;;7.67;2.57;;;;;;;30.72;24.86;101659.06;10373998;28;20049;-71
2023/06/14 13:21:52;;;;;;;2.42;1.67;;;;;;;30.79;24.74;101653.91;10374590;28;20283;-71
2023/06/14 13:26:52;;;;;;;1.98;1.77;;;;;;;31.18;24.74;101657.97;10373084;28;20045;-71
2023/06/14 13:31:53;;;;;;;16.05;1.75;;;;;;;31.62;24.57;101647.91;10372319;28;20046;-71
2023/06/14 13:36:54;;;;;;;3.22;2.55;;;;;;;31.66;24.30;101659.28;10372514;28;20442;-71
2023/06/14 13:41:54;;;;;;;3.72;2.45;;;;;;;31.23;24.85;101649.44;10373864;28;20045;-71
2023/06/14 13:46:55;;;;;;;2.28;1.75;;;;;;;30.92;23.87;101651.34;10373690;28;20045;-71
2023/06/14 13:51:56;;;;;;;2.58;2.10;;;;;;;31.04;25.14;101644.03;10373322;28;20037;-71
2023/06/14 13:56:56;;;;;;;2.38;2.17;;;;;;;31.16;25.62;101637.06;10372118;28;20044;-71
2023/06/14 14:01:57;;;;;;;1.58;1.48;;;;;;;30.99;25.54;101646.16;10372909;28;20041;-71
2023/06/14 14:06:57;;;;;;;2.38;2.17;;;;;;;30.86;26.63;101627.50;10373357;28;20123;-71
2023/06/14 14:11:58;;;;;;;13.32;2.65;;;;;;;31.33;26.00;101623.19;10371056;28;20104;-71
2023/06/14 14:16:58;;;;;;;2.90;1.88;;;;;;;31.20;24.82;101638.06;10355260;28;20123;-71
2023/06/14 14:21:59;;;;;;;1.98;1.88;;;;;;;30.18;25.44;101632.06;10354353;28;20562;-71
2023/06/14 14:27:00;;;;;;;1.70;1.63;;;;;;;29.87;26.41;101646.69;10372108;28;20092;-71
2023/06/14 14:32:00;;;;;;;2.35;1.90;;;;;;;29.49;26.65;101632.84;10370480;28;20117;-71
2023/06/14 14:37:01;;;;;;;1.80;1.70;;;;;;;29.33;27.13;101635.09;10371742;28;20095;-71
2023/06/14 14:42:01;;;;;;;1.88;1.77;;;;;;;29.63;26.42;101635.69;10371277;28;20053;-71
2023/06/14 14:47:02;;;;;;;4.30;1.98;;;;;;;29.37;27.33;101629.72;10372019;28;20124;-70
2023/06/14 14:52:03;;;;;;;5.32;2.22;;;;;;;29.58;27.01;101625.44;10370945;28;20038;-71
2023/06/14 14:57:03;;;;;;;3.25;2.63;;;;;;;29.25;27.93;101618.22;10354039;28;20050;-71
2023/06/14 15:02:04;;;;;;;1.70;1.60;;;;;;;28.95;27.27;101629.59;10337334;28;20345;-71
2023/06/14 15:07:06;;;;;;;2.22;2.13;;;;;;;28.89;27.79;101627.19;10372187;28;20042;-70
2023/06/14 15:12:07;;;;;;;7.15;2.53;;;;;;;29.10;27.34;101625.75;10370952;28;20113;-71
2023/06/14 15:17:07;;;;;;;2.10;1.88;;;;;;;29.20;27.11;101630.31;10370147;28;20456;-71
2023/06/14 15:22:08;;;;;;;3.13;2.25;;;;;;;28.79;27.83;101616.22;10352414;28;20030;-71
2023/06/14 15:27:08;;;;;;;8.73;2.08;;;;;;;29.00;27.69;101622.25;10371185;28;20061;-71
2023/06/14 15:32:09;;;;;;;5.32;2.67;;;;;;;29.01;27.98;101629.53;10369326;28;20050;-71
2023/06/14 15:37:09;;;;;;;1.90;1.80;;;;;;;28.77;28.19;101622.06;10370492;28;20042;-71
2023/06/14 15:42:11;;;;;;;1.75;1.65;;;;;;;29.13;28.27;101618.72;10368986;28;20117;-70
2023/06/14 15:47:11;;;;;;;2.25;2.15;;;;;;;29.00;28.33;101622.25;10369722;28;20056;-71
2023/06/14 15:52:12;;;;;;;1.73;1.48;;;;;;;28.96;28.71;101622.03;10370893;28;20375;-71
2023/06/14 15:57:12;;;;;;;2.27;2.17;;;;;;;28.33;28.91;101625.19;10376644;28;20465;-70
2023/06/14 16:02:13;;;;;;;1.90;1.80;;;;;;;28.11;28.45;101628.56;10377269;28;20366;-71
2023/06/14 16:07:14;;;;;;;4.07;1.65;;;;;;;28.10;28.90;101615.78;10377387;28;20037;-71
2023/06/14 16:12:14;;;;;;;2.35;1.88;;;;;;;27.62;28.40;101621.31;10375801;28;20077;-71
2023/06/14 16:17:15;;;;;;;4.25;2.10;;;;;;;27.11;28.79;101609.56;10377998;28;20076;-70
2023/06/14 16:22:15;;;;;;;1.70;1.60;;;;;;;26.83;29.56;101611.16;10376462;28;20116;-70
2023/06/14 16:27:16;;;;;;;2.17;2.08;;;;;;;26.57;29.80;101613.31;10376472;28;20111;-70
2023/06/14 16:32:16;;;;;;;3.83;1.88;;;;;;;26.07;31.01;101603.28;10377137;28;20054;-70
2023/06/14 16:37:17;;;;;;;3.30;1.63;;;;;;;25.70;31.44;101599.78;10376130;28;20070;-70
2023/06/14 16:42:17;;;;;;;17.98;1.98;;;;;;;25.64;31.25;101600.94;10374124;28;20109;-70
2023/06/14 16:47:17;;;;;;;7.75;2.65;;;;;;;25.46;32.19;101598.75;10375213;28;20045;-70
2023/06/14 16:52:18;;;;;;;2.25;1.73;;;;;;;25.34;31.86;101603.78;10374380;28;20058;-69
2023/06/14 16:57:18;;;;;;;1.70;1.60;;;;;;;25.18;32.53;101616.84;10374716;28;20037;-70
2023/06/14 17:02:19;;;;;;;1.90;1.80;;;;;;;25.07;32.71;101618.72;10389715;28;20161;-70
2023/06/14 17:07:19;;;;;;;13.27;1.95;;;;;;;25.11;32.57;101619.00;10374612;28;20076;-70
2023/06/14 17:12:20;;;;;;;2.63;1.83;;;;;;;24.95;32.73;101634.78;10374307;28;20121;-70
2023/06/14 17:17:20;;;;;;;1.83;1.73;;;;;;;24.87;33.03;101621.50;10373034;28;20052;-70
2023/06/14 17:22:20;;;;;;;2.42;2.22;;;;;;;24.85;33.13;101629.25;10372135;28;20030;-70
2023/06/14 17:27:21;;;;;;;2.88;1.70;;;;;;;24.85;33.15;101638.38;10374068;28;20046;-70
2023/06/14 17:32:21;;;;;;;2.78;1.70;;;;;;;24.87;32.86;101643.66;10372374;28;20508;-70
2023/06/14 17:37:22;;;;;;;2.53;2.10;;;;;;;24.78;33.20;101644.19;10372404;28;20057;-70
2023/06/14 17:42:22;;;;;;;2.88;2.00;;;;;;;24.56;33.59;101641.66;10372646;28;20037;-69
2023/06/14 17:47:23;;;;;;;1.98;1.73;;;;;;;24.55;34.12;101645.53;10372161;28;20034;-70
2023/06/14 17:52:23;;;;;;;1.30;1.30;;;;;;;24.46;34.18;101644.41;10373041;28;20107;-70
2023/06/14 17:57:24;;;;;;;4.78;1.70;;;;;;;24.47;33.90;101654.38;10371364;28;20030;-70
2023/06/14 18:02:25;;;;;;;1.13;1.13;;;;;;;24.39;34.24;101649.34;10373078;28;20053;-70
2023/06/14 18:07:26;;;;;;;1.40;1.30;;;;;;;24.30;34.85;101654.56;10372378;28;20469;-70
2023/06/14 18:12:27;;;;;;;3.25;1.73;;;;;;;24.18;34.84;101661.44;10373211;28;20030;-70
2023/06/14 18:17:27;;;;;;;1.73;1.63;;;;;;;24.11;34.85;101661.69;10372274;28;20433;-70
2023/06/14 18:22:28;;;;;;;5.40;2.10;;;;;;;24.06;34.52;101661.69;10353741;28;20038;-70
2023/06/14 18:27:28;;;;;;;1.55;1.52;;;;;;;23.98;35.19;101667.72;10371411;28;20034;-70
2023/06/14 18:32:31;;;;;;;1.85;1.75;;;;;;;23.83;35.59;101672.06;10369775;28;20065;-70
2023/06/14 18:37:32;;;;;;;1.92;1.38;;;;;;;23.77;35.21;101677.81;10372235;28;20413;-70
2023/06/14 18:42:32;;;;;;;1.48;1.40;;;;;;;23.62;35.75;101679.38;10374343;28;20066;-79
2023/06/14 18:47:32;;;;;;;13.55;2.28;;;;;;;23.54;36.27;101687.31;10374014;28;20437;-75
2023/06/14 18:52:33;;;;;;;10.13;1.70;;;;;;;23.49;36.14;101679.84;10370997;28;20070;-76
2023/06/14 18:57:33;;;;;;;1.88;1.73;;;;;;;23.42;36.83;101688.38;10370372;28;20042;-77
2023/06/14 19:02:34;;;;;;;2.65;1.60;;;;;;;23.46;36.34;101699.72;10373277;28;20037;-77
2023/06/14 19:07:34;;;;;;;5.72;1.25;;;;;;;23.39;36.54;101704.66;10374245;28;20316;-78
2023/06/14 19:12:35;;;;;;;17.00;2.60;;;;;;;23.38;36.12;101698.25;10373968;28;20065;-77
2023/06/14 19:17:35;;;;;;;1.50;1.10;;;;;;;23.27;36.46;101707.56;10341738;28;20113;-78
2023/06/14 19:22:36;;;;;;;3.40;1.50;;;;;;;23.11;36.96;101701.06;10354558;28;20057;-78
2023/06/14 19:27:37;;;;;;;5.07;1.55;;;;;;;22.92;37.84;101703.34;10375766;28;20042;-78
2023/06/14 19:32:38;;;;;;;1.48;1.38;;;;;;;22.83;38.11;101718.72;10379496;28;20457;-75
2023/06/14 19:37:38;;;;;;;1.65;1.55;;;;;;;22.72;38.48;101716.94;10378544;28;20141;-77
2023/06/14 19:42:40;;;;;;;2.20;2.03;;;;;;;22.61;38.22;101715.16;10379755;28;20121;-78
2023/06/14 19:47:41;;;;;;;1.80;1.70;;;;;;;22.52;38.24;101723.03;10380398;28;20503;-80
2023/06/14 19:52:41;;;;;;;2.33;2.13;;;;;;;22.35;38.12;101734.16;10364348;28;20464;-80
2023/06/14 19:57:42;;;;;;;1.70;1.60;;;;;;;22.13;39.62;101744.31;10363875;28;20136;-80
2023/06/14 20:02:42;;;;;;;4.40;1.83;;;;;;;22.00;40.17;101751.03;10380863;28;20133;-79
2023/06/14 20:07:42;;;;;;;4.15;1.88;;;;;;;21.89;39.97;101757.47;10382472;28;20076;-79
2023/06/14 20:12:43;;;;;;;1.90;1.70;;;;;;;21.75;39.47;101751.47;10382478;28;20041;-81
2023/06/14 20:17:44;;;;;;;3.03;2.17;;;;;;;21.54;40.97;101759.41;10373550;28;20038;-79
2023/06/14 20:22:44;;;;;;;4.05;2.40;;;;;;;21.40;42.29;101762.72;10390189;28;20045;-80
2023/06/14 20:27:45;;;;;;;2.38;2.17;;;;;;;21.32;41.14;101769.47;10384544;28;20042;-79
2023/06/14 20:32:45;;;;;;;1.75;1.65;;;;;;;21.21;40.91;101778.63;10371247;28;20137;-78
2023/06/14 20:37:49;;;;;;;2.97;2.45;;;;;;;21.10;40.89;101783.09;10382939;28;20389;-78
2023/06/14 20:42:49;;;;;;;6.78;2.25;;;;;;;20.95;40.82;101785.56;10380903;28;20032;-69
2023/06/14 20:47:50;;;;;;;1.58;1.42;;;;;;;20.85;41.50;101789.78;10374819;28;20045;-70
2023/06/14 20:52:50;;;;;;;3.67;1.80;;;;;;;20.72;41.28;101792.81;10358100;28;20386;-70
2023/06/14 20:57:51;;;;;;;4.95;2.10;;;;;;;20.57;40.40;101796.06;10390487;28;20433;-70
2023/06/14 21:02:52;;;;;;;3.58;2.55;;;;;;;20.38;40.51;101797.28;10375291;28;20037;-70
2023/06/14 21:07:52;;;;;;;1.80;1.70;;;;;;;20.23;40.23;101800.53;10374123;28;20444;-70
2023/06/14 21:12:56;;;;;;;1.55;1.45;;;;;;;19.98;40.31;101801.59;10373655;28;20487;-70
2023/06/14 21:17:56;;;;;;;1.67;1.58;;;;;;;19.82;40.32;101809.72;10358382;28;20455;-69
2023/06/14 21:22:57;;;;;;;1.67;1.58;;;;;;;19.59;40.74;101814.06;10356334;28;20078;-70
2023/06/14 21:27:57;;;;;;;2.67;2.45;;;;;;;19.52;40.55;101811.41;10372442;28;20124;-70
2023/06/14 21:32:58;;;;;;;2.35;2.15;;;;;;;19.43;41.09;101807.34;10372481;28;20092;-70
2023/06/14 21:37:59;;;;;;;3.22;2.17;;;;;;;19.31;41.14;101809.22;10373553;28;20046;-69
2023/06/14 21:42:59;;;;;;;1.92;1.83;;;;;;;19.24;41.28;101811.19;10373022;28;20129;-69
2023/06/14 21:48:00;;;;;;;5.53;2.90;;;;;;;19.09;41.31;101811.63;10373408;28;20038;-69
2023/06/14 21:53:00;;;;;;;3.10;2.22;;;;;;;19.00;41.76;101811.09;10370709;28;20030;-69
2023/06/14 21:58:00;;;;;;;10.15;2.40;;;;;;;18.93;41.75;101812.25;10372723;28;20110;-69
2023/06/14 22:03:01;;;;;;;2.53;2.33;;;;;;;18.77;41.86;101802.75;10372818;28;20030;-69
2023/06/14 22:08:02;;;;;;;2.95;2.75;;;;;;;18.72;42.05;101813.53;10339082;28;20392;-69
2023/06/14 22:13:02;;;;;;;2.67;2.47;;;;;;;18.66;41.94;101817.19;10373766;28;20118;-69
2023/06/14 22:18:03;;;;;;;4.13;2.30;;;;;;;18.61;42.55;101814.31;10387493;28;20029;-69
2023/06/14 22:23:03;;;;;;;2.72;2.00;;;;;;;18.49;42.65;101826.03;10370273;28;20041;-69
2023/06/14 22:28:04;;;;;;;2.80;2.50;;;;;;;18.45;43.31;101826.72;10371820;28;20037;-69
2023/06/14 22:33:05;;;;;;;7.07;2.67;;;;;;;18.48;44.22;101823.53;10371561;28;20048;-69
2023/06/14 22:38:07;;;;;;;2.47;2.28;;;;;;;18.50;44.02;101824.13;10371802;28;20038;-69
2023/06/14 22:43:08;;;;;;;3.42;2.83;;;;;;;18.40;44.22;101826.56;10370063;28;20033;-69
2023/06/14 22:48:08;;;;;;;3.17;2.88;;;;;;;18.28;44.45;101830.06;10373353;28;20030;-69
2023/06/14 22:53:09;;;;;;;6.07;2.95;;;;;;;18.19;44.46;101831.41;10371782;28;20029;-69
2023/06/14 22:58:14;;;;;;;2.65;2.45;;;;;;;18.11;45.38;101824.31;10371751;28;20181;-69
2023/06/14 23:03:15;;;;;;;2.42;2.25;;;;;;;18.08;45.97;101827.50;10371070;28;20026;-69